sensor_id;sensor_type;location;lat;lon;timestamp;P1;durP1;ratioP1;P2;durP2;ratioP2
75289;SDS011;63883;48.996;20.804;2023-03-13T00:01:12;19.05;;;7.95;;
75289;SDS011;63883;48.996;20.804;2023-03-13T00:03:44;17.02;;;7.78;;
75289;SDS011;63883;48.996;20.804;2023-03-13T00:06:10;19.75;;;8.50;;
75289;SDS011;63883;48.996;20.804;2023-03-13T00:08:36;16.67;;;7.60;;
75289;SDS011;63883;48.996;20.804;2023-03-13T00:11:02;12.32;;;6.28;;
75289;SDS011;63883;48.996;20.804;2023-03-13T00:13:30;12.85;;;5.90;;
75289;SDS011;63883;48.996;20.804;2023-03-13T00:16:03;13.18;;;5.80;;
75289;SDS011;63883;48.996;20.804;2023-03-13T00:18:31;12.80;;;5.95;;
75289;SDS011;63883;48.996;20.804;2023-03-13T00:21:01;10.23;;;5.13;;
75289;SDS011;63883;48.996;20.804;2023-03-13T00:23:32;12.60;;;6.55;;
75289;SDS011;63883;48.996;20.804;2023-03-13T00:26:00;8.95;;;4.70;;
75289;SDS011;63883;48.996;20.804;2023-03-13T00:28:47;8.15;;;3.95;;
75289;SDS011;63883;48.996;20.804;2023-03-13T00:31:13;6.63;;;3.95;;
75289;SDS011;63883;48.996;20.804;2023-03-13T00:33:42;4.82;;;2.65;;
75289;SDS011;63883;48.996;20.804;2023-03-13T00:36:10;5.32;;;2.90;;
75289;SDS011;63883;48.996;20.804;2023-03-13T00:38:41;4.82;;;2.92;;
75289;SDS011;63883;48.996;20.804;2023-03-13T00:41:09;3.72;;;2.50;;
75289;SDS011;63883;48.996;20.804;2023-03-13T00:43:39;5.40;;;3.33;;
75289;SDS011;63883;48.996;20.804;2023-03-13T00:46:06;5.47;;;3.17;;
75289;SDS011;63883;48.996;20.804;2023-03-13T00:48:33;4.50;;;2.80;;
75289;SDS011;63883;48.996;20.804;2023-03-13T00:50:59;5.25;;;3.05;;
75289;SDS011;63883;48.996;20.804;2023-03-13T00:53:26;3.63;;;2.40;;
75289;SDS011;63883;48.996;20.804;2023-03-13T00:55:52;4.60;;;2.67;;
75289;SDS011;63883;48.996;20.804;2023-03-13T00:58:22;5.18;;;3.00;;
75289;SDS011;63883;48.996;20.804;2023-03-13T01:00:49;4.05;;;2.63;;
75289;SDS011;63883;48.996;20.804;2023-03-13T01:03:15;5.22;;;2.95;;
75289;SDS011;63883;48.996;20.804;2023-03-13T01:05:41;3.78;;;2.45;;
75289;SDS011;63883;48.996;20.804;2023-03-13T01:08:07;4.47;;;2.60;;
75289;SDS011;63883;48.996;20.804;2023-03-13T01:10:33;3.25;;;2.60;;
75289;SDS011;63883;48.996;20.804;2023-03-13T01:12:59;3.78;;;2.67;;
75289;SDS011;63883;48.996;20.804;2023-03-13T01:15:25;3.38;;;2.38;;
75289;SDS011;63883;48.996;20.804;2023-03-13T01:17:51;3.65;;;2.47;;
75289;SDS011;63883;48.996;20.804;2023-03-13T01:20:16;3.10;;;2.17;;
75289;SDS011;63883;48.996;20.804;2023-03-13T01:22:43;4.50;;;2.92;;
75289;SDS011;63883;48.996;20.804;2023-03-13T01:25:08;6.18;;;2.80;;
75289;SDS011;63883;48.996;20.804;2023-03-13T01:27:34;7.35;;;4.78;;
75289;SDS011;63883;48.996;20.804;2023-03-13T01:30:00;5.75;;;2.95;;
75289;SDS011;63883;48.996;20.804;2023-03-13T01:32:26;4.97;;;3.05;;
75289;SDS011;63883;48.996;20.804;2023-03-13T01:34:51;4.32;;;2.63;;
75289;SDS011;63883;48.996;20.804;2023-03-13T01:37:17;3.85;;;2.40;;
75289;SDS011;63883;48.996;20.804;2023-03-13T01:39:43;3.30;;;2.60;;
75289;SDS011;63883;48.996;20.804;2023-03-13T01:42:08;3.65;;;2.33;;
75289;SDS011;63883;48.996;20.804;2023-03-13T01:44:50;5.07;;;2.83;;
75289;SDS011;63883;48.996;20.804;2023-03-13T01:47:18;3.38;;;2.60;;
75289;SDS011;63883;48.996;20.804;2023-03-13T01:49:44;4.78;;;2.47;;
75289;SDS011;63883;48.996;20.804;2023-03-13T01:52:13;3.60;;;2.63;;
75289;SDS011;63883;48.996;20.804;2023-03-13T01:54:56;5.07;;;3.10;;
75289;SDS011;63883;48.996;20.804;2023-03-13T01:57:34;4.32;;;3.03;;
75289;SDS011;63883;48.996;20.804;2023-03-13T02:00:12;5.18;;;3.35;;
75289;SDS011;63883;48.996;20.804;2023-03-13T02:03:00;5.03;;;3.13;;
75289;SDS011;63883;48.996;20.804;2023-03-13T02:05:30;5.70;;;3.47;;
75289;SDS011;63883;48.996;20.804;2023-03-13T02:08:15;5.32;;;3.28;;
75289;SDS011;63883;48.996;20.804;2023-03-13T02:10:49;4.90;;;2.83;;
75289;SDS011;63883;48.996;20.804;2023-03-13T02:13:18;5.13;;;3.17;;
75289;SDS011;63883;48.996;20.804;2023-03-13T02:15:45;6.28;;;3.53;;
75289;SDS011;63883;48.996;20.804;2023-03-13T02:18:11;4.65;;;3.00;;
75289;SDS011;63883;48.996;20.804;2023-03-13T02:20:38;5.85;;;3.30;;
75289;SDS011;63883;48.996;20.804;2023-03-13T02:25:46;3.63;;;2.70;;
75289;SDS011;63883;48.996;20.804;2023-03-13T02:28:15;5.90;;;2.67;;
75289;SDS011;63883;48.996;20.804;2023-03-13T02:30:45;3.90;;;2.65;;
75289;SDS011;63883;48.996;20.804;2023-03-13T02:33:13;6.70;;;3.55;;
75289;SDS011;63883;48.996;20.804;2023-03-13T02:35:41;5.20;;;3.45;;
75289;SDS011;63883;48.996;20.804;2023-03-13T02:38:09;4.45;;;3.00;;
75289;SDS011;63883;48.996;20.804;2023-03-13T02:40:39;6.82;;;3.30;;
75289;SDS011;63883;48.996;20.804;2023-03-13T02:43:13;5.57;;;3.20;;
75289;SDS011;63883;48.996;20.804;2023-03-13T02:45:41;5.68;;;3.45;;
75289;SDS011;63883;48.996;20.804;2023-03-13T02:48:07;6.15;;;3.75;;
75289;SDS011;63883;48.996;20.804;2023-03-13T02:50:33;6.97;;;3.30;;
75289;SDS011;63883;48.996;20.804;2023-03-13T02:53:02;6.00;;;3.10;;
75289;SDS011;63883;48.996;20.804;2023-03-13T02:55:33;6.90;;;3.40;;
75289;SDS011;63883;48.996;20.804;2023-03-13T02:58:02;4.88;;;3.13;;
75289;SDS011;63883;48.996;20.804;2023-03-13T03:00:28;4.90;;;3.13;;
75289;SDS011;63883;48.996;20.804;2023-03-13T03:02:54;4.43;;;3.05;;
75289;SDS011;63883;48.996;20.804;2023-03-13T03:05:20;3.92;;;2.90;;
75289;SDS011;63883;48.996;20.804;2023-03-13T03:07:47;5.65;;;3.30;;
75289;SDS011;63883;48.996;20.804;2023-03-13T03:10:14;4.88;;;3.22;;
75289;SDS011;63883;48.996;20.804;2023-03-13T03:12:41;4.78;;;3.10;;
75289;SDS011;63883;48.996;20.804;2023-03-13T03:15:06;5.28;;;3.08;;
75289;SDS011;63883;48.996;20.804;2023-03-13T03:17:33;4.88;;;3.15;;
75289;SDS011;63883;48.996;20.804;2023-03-13T03:19:58;5.03;;;3.22;;
75289;SDS011;63883;48.996;20.804;2023-03-13T03:22:24;5.20;;;3.22;;
75289;SDS011;63883;48.996;20.804;2023-03-13T03:24:50;4.97;;;3.47;;
75289;SDS011;63883;48.996;20.804;2023-03-13T03:27:15;4.20;;;3.00;;
75289;SDS011;63883;48.996;20.804;2023-03-13T03:29:41;6.57;;;3.33;;
75289;SDS011;63883;48.996;20.804;2023-03-13T03:32:07;4.57;;;3.10;;
75289;SDS011;63883;48.996;20.804;2023-03-13T03:34:32;5.10;;;2.95;;
75289;SDS011;63883;48.996;20.804;2023-03-13T03:36:58;4.13;;;2.83;;
75289;SDS011;63883;48.996;20.804;2023-03-13T03:39:24;4.75;;;3.05;;
75289;SDS011;63883;48.996;20.804;2023-03-13T03:41:50;6.53;;;3.25;;
75289;SDS011;63883;48.996;20.804;2023-03-13T03:44:15;3.92;;;2.90;;
75289;SDS011;63883;48.996;20.804;2023-03-13T03:46:41;4.95;;;3.38;;
75289;SDS011;63883;48.996;20.804;2023-03-13T03:49:07;5.90;;;3.05;;
75289;SDS011;63883;48.996;20.804;2023-03-13T03:51:33;8.30;;;3.20;;
75289;SDS011;63883;48.996;20.804;2023-03-13T03:53:58;5.18;;;3.03;;
75289;SDS011;63883;48.996;20.804;2023-03-13T03:56:24;4.25;;;2.97;;
75289;SDS011;63883;48.996;20.804;2023-03-13T03:58:50;4.65;;;3.05;;
75289;SDS011;63883;48.996;20.804;2023-03-13T04:01:15;5.20;;;3.05;;
75289;SDS011;63883;48.996;20.804;2023-03-13T04:03:41;6.00;;;3.40;;
75289;SDS011;63883;48.996;20.804;2023-03-13T04:06:07;5.22;;;3.15;;
75289;SDS011;63883;48.996;20.804;2023-03-13T04:08:34;5.45;;;3.20;;
75289;SDS011;63883;48.996;20.804;2023-03-13T04:11:00;4.90;;;3.20;;
75289;SDS011;63883;48.996;20.804;2023-03-13T04:13:26;5.30;;;3.30;;
75289;SDS011;63883;48.996;20.804;2023-03-13T04:15:52;5.60;;;3.22;;
75289;SDS011;63883;48.996;20.804;2023-03-13T04:18:18;4.40;;;3.13;;
75289;SDS011;63883;48.996;20.804;2023-03-13T04:20:44;5.28;;;3.22;;
75289;SDS011;63883;48.996;20.804;2023-03-13T04:23:10;8.25;;;4.22;;
75289;SDS011;63883;48.996;20.804;2023-03-13T04:25:35;8.65;;;3.80;;
75289;SDS011;63883;48.996;20.804;2023-03-13T04:28:01;6.65;;;3.53;;
75289;SDS011;63883;48.996;20.804;2023-03-13T04:30:27;6.30;;;4.00;;
75289;SDS011;63883;48.996;20.804;2023-03-13T04:32:53;6.22;;;3.70;;
75289;SDS011;63883;48.996;20.804;2023-03-13T04:35:19;5.35;;;3.40;;
75289;SDS011;63883;48.996;20.804;2023-03-13T04:37:44;6.70;;;3.33;;
75289;SDS011;63883;48.996;20.804;2023-03-13T04:40:10;5.10;;;3.65;;
75289;SDS011;63883;48.996;20.804;2023-03-13T04:42:37;4.80;;;3.08;;
75289;SDS011;63883;48.996;20.804;2023-03-13T04:45:04;5.95;;;3.70;;
75289;SDS011;63883;48.996;20.804;2023-03-13T04:47:30;5.82;;;3.67;;
75289;SDS011;63883;48.996;20.804;2023-03-13T04:49:56;5.72;;;3.55;;
75289;SDS011;63883;48.996;20.804;2023-03-13T04:52:22;7.00;;;3.45;;
75289;SDS011;63883;48.996;20.804;2023-03-13T04:54:47;6.72;;;4.05;;
75289;SDS011;63883;48.996;20.804;2023-03-13T04:57:15;7.82;;;3.97;;
75289;SDS011;63883;48.996;20.804;2023-03-13T04:59:41;6.93;;;3.92;;
75289;SDS011;63883;48.996;20.804;2023-03-13T05:02:09;7.00;;;3.75;;
75289;SDS011;63883;48.996;20.804;2023-03-13T05:04:37;7.15;;;3.63;;
75289;SDS011;63883;48.996;20.804;2023-03-13T05:07:03;5.43;;;3.58;;
75289;SDS011;63883;48.996;20.804;2023-03-13T05:09:29;8.02;;;3.85;;
75289;SDS011;63883;48.996;20.804;2023-03-13T05:11:54;5.55;;;3.65;;
75289;SDS011;63883;48.996;20.804;2023-03-13T05:14:20;6.78;;;3.60;;
75289;SDS011;63883;48.996;20.804;2023-03-13T05:16:45;5.13;;;3.72;;
75289;SDS011;63883;48.996;20.804;2023-03-13T05:19:11;5.88;;;3.17;;
75289;SDS011;63883;48.996;20.804;2023-03-13T05:21:37;5.93;;;3.20;;
75289;SDS011;63883;48.996;20.804;2023-03-13T05:24:03;5.90;;;3.38;;
75289;SDS011;63883;48.996;20.804;2023-03-13T05:26:28;5.85;;;3.70;;
75289;SDS011;63883;48.996;20.804;2023-03-13T05:28:54;8.18;;;3.95;;
75289;SDS011;63883;48.996;20.804;2023-03-13T05:31:20;6.65;;;3.60;;
75289;SDS011;63883;48.996;20.804;2023-03-13T05:33:46;4.45;;;3.10;;
75289;SDS011;63883;48.996;20.804;2023-03-13T05:36:11;4.82;;;3.20;;
75289;SDS011;63883;48.996;20.804;2023-03-13T05:38:37;6.07;;;3.40;;
75289;SDS011;63883;48.996;20.804;2023-03-13T05:41:03;6.13;;;3.20;;
75289;SDS011;63883;48.996;20.804;2023-03-13T05:43:29;5.00;;;3.50;;
75289;SDS011;63883;48.996;20.804;2023-03-13T05:45:54;6.20;;;3.53;;
75289;SDS011;63883;48.996;20.804;2023-03-13T05:48:20;6.82;;;3.33;;
75289;SDS011;63883;48.996;20.804;2023-03-13T05:50:45;4.93;;;3.10;;
75289;SDS011;63883;48.996;20.804;2023-03-13T05:53:11;8.00;;;3.65;;
75289;SDS011;63883;48.996;20.804;2023-03-13T05:55:37;7.05;;;2.60;;
75289;SDS011;63883;48.996;20.804;2023-03-13T05:58:03;6.05;;;3.28;;
75289;SDS011;63883;48.996;20.804;2023-03-13T06:00:28;5.03;;;2.80;;
75289;SDS011;63883;48.996;20.804;2023-03-13T06:02:54;6.88;;;2.88;;
75289;SDS011;63883;48.996;20.804;2023-03-13T06:05:20;6.50;;;3.60;;
75289;SDS011;63883;48.996;20.804;2023-03-13T06:07:46;7.75;;;3.55;;
75289;SDS011;63883;48.996;20.804;2023-03-13T06:10:13;7.05;;;3.47;;
75289;SDS011;63883;48.996;20.804;2023-03-13T06:12:39;5.30;;;3.30;;
75289;SDS011;63883;48.996;20.804;2023-03-13T06:15:05;5.75;;;3.47;;
75289;SDS011;63883;48.996;20.804;2023-03-13T06:17:31;5.75;;;3.70;;
75289;SDS011;63883;48.996;20.804;2023-03-13T06:19:57;5.88;;;3.67;;
75289;SDS011;63883;48.996;20.804;2023-03-13T06:22:23;8.23;;;4.93;;
75289;SDS011;63883;48.996;20.804;2023-03-13T06:24:48;9.57;;;5.07;;
75289;SDS011;63883;48.996;20.804;2023-03-13T06:27:15;9.95;;;7.25;;
75289;SDS011;63883;48.996;20.804;2023-03-13T06:29:41;10.43;;;6.00;;
75289;SDS011;63883;48.996;20.804;2023-03-13T06:32:07;6.32;;;3.92;;
75289;SDS011;63883;48.996;20.804;2023-03-13T06:34:33;6.47;;;3.60;;
75289;SDS011;63883;48.996;20.804;2023-03-13T06:36:59;4.45;;;3.17;;
75289;SDS011;63883;48.996;20.804;2023-03-13T06:39:24;6.65;;;4.00;;
75289;SDS011;63883;48.996;20.804;2023-03-13T06:41:50;5.50;;;3.60;;
75289;SDS011;63883;48.996;20.804;2023-03-13T06:44:16;5.70;;;3.33;;
75289;SDS011;63883;48.996;20.804;2023-03-13T06:46:42;7.03;;;4.03;;
75289;SDS011;63883;48.996;20.804;2023-03-13T06:49:07;6.18;;;3.80;;
75289;SDS011;63883;48.996;20.804;2023-03-13T06:51:33;5.20;;;3.42;;
75289;SDS011;63883;48.996;20.804;2023-03-13T06:54:00;6.13;;;3.72;;
75289;SDS011;63883;48.996;20.804;2023-03-13T06:56:27;7.80;;;3.72;;
75289;SDS011;63883;48.996;20.804;2023-03-13T06:58:53;5.07;;;3.00;;
75289;SDS011;63883;48.996;20.804;2023-03-13T07:01:18;5.25;;;3.17;;
75289;SDS011;63883;48.996;20.804;2023-03-13T07:03:45;5.38;;;3.53;;
75289;SDS011;63883;48.996;20.804;2023-03-13T07:06:12;6.78;;;4.80;;
75289;SDS011;63883;48.996;20.804;2023-03-13T07:08:38;6.57;;;4.38;;
75289;SDS011;63883;48.996;20.804;2023-03-13T07:11:05;8.10;;;4.82;;
75289;SDS011;63883;48.996;20.804;2023-03-13T07:13:33;7.90;;;4.90;;
75289;SDS011;63883;48.996;20.804;2023-03-13T07:15:59;8.18;;;5.05;;
75289;SDS011;63883;48.996;20.804;2023-03-13T07:18:26;9.80;;;5.40;;
75289;SDS011;63883;48.996;20.804;2023-03-13T07:20:55;9.38;;;5.88;;
75289;SDS011;63883;48.996;20.804;2023-03-13T07:23:22;9.20;;;5.07;;
75289;SDS011;63883;48.996;20.804;2023-03-13T07:26:31;9.48;;;5.35;;
75289;SDS011;63883;48.996;20.804;2023-03-13T07:28:39;9.27;;;5.80;;
75289;SDS011;63883;48.996;20.804;2023-03-13T07:31:06;8.73;;;5.70;;
75289;SDS011;63883;48.996;20.804;2023-03-13T07:33:37;7.15;;;4.40;;
75289;SDS011;63883;48.996;20.804;2023-03-13T07:36:03;7.25;;;4.60;;
75289;SDS011;63883;48.996;20.804;2023-03-13T07:38:29;7.93;;;4.72;;
75289;SDS011;63883;48.996;20.804;2023-03-13T07:40:55;8.10;;;4.38;;
75289;SDS011;63883;48.996;20.804;2023-03-13T07:43:22;9.40;;;4.60;;
75289;SDS011;63883;48.996;20.804;2023-03-13T07:45:53;5.15;;;3.72;;
75289;SDS011;63883;48.996;20.804;2023-03-13T07:48:24;5.97;;;3.22;;
75289;SDS011;63883;48.996;20.804;2023-03-13T07:50:53;4.70;;;3.45;;
75289;SDS011;63883;48.996;20.804;2023-03-13T07:53:19;6.93;;;4.15;;
75289;SDS011;63883;48.996;20.804;2023-03-13T07:58:24;5.88;;;3.72;;
75289;SDS011;63883;48.996;20.804;2023-03-13T08:00:52;6.57;;;3.80;;
75289;SDS011;63883;48.996;20.804;2023-03-13T08:03:18;5.32;;;3.55;;
75289;SDS011;63883;48.996;20.804;2023-03-13T08:05:44;4.70;;;3.42;;
75289;SDS011;63883;48.996;20.804;2023-03-13T08:08:09;6.18;;;3.47;;
75289;SDS011;63883;48.996;20.804;2023-03-13T08:10:36;5.00;;;3.30;;
75289;SDS011;63883;48.996;20.804;2023-03-13T08:13:01;5.47;;;3.53;;
75289;SDS011;63883;48.996;20.804;2023-03-13T08:15:27;6.88;;;3.88;;
75289;SDS011;63883;48.996;20.804;2023-03-13T08:17:54;6.25;;;3.92;;
75289;SDS011;63883;48.996;20.804;2023-03-13T08:20:21;5.93;;;4.22;;
75289;SDS011;63883;48.996;20.804;2023-03-13T08:22:47;7.97;;;4.00;;
75289;SDS011;63883;48.996;20.804;2023-03-13T08:25:14;5.70;;;4.22;;
75289;SDS011;63883;48.996;20.804;2023-03-13T08:27:39;6.65;;;3.70;;
75289;SDS011;63883;48.996;20.804;2023-03-13T08:30:05;5.45;;;3.30;;
75289;SDS011;63883;48.996;20.804;2023-03-13T08:32:32;5.55;;;3.50;;
75289;SDS011;63883;48.996;20.804;2023-03-13T08:34:59;5.55;;;3.78;;
75289;SDS011;63883;48.996;20.804;2023-03-13T08:37:24;6.38;;;4.07;;
75289;SDS011;63883;48.996;20.804;2023-03-13T08:39:50;5.15;;;3.58;;
75289;SDS011;63883;48.996;20.804;2023-03-13T08:42:18;5.93;;;3.88;;
75289;SDS011;63883;48.996;20.804;2023-03-13T08:44:44;6.35;;;3.80;;
75289;SDS011;63883;48.996;20.804;2023-03-13T08:47:09;5.07;;;4.00;;
75289;SDS011;63883;48.996;20.804;2023-03-13T08:49:35;6.50;;;3.80;;
75289;SDS011;63883;48.996;20.804;2023-03-13T08:52:02;8.57;;;4.10;;
75289;SDS011;63883;48.996;20.804;2023-03-13T08:54:29;7.93;;;4.10;;
75289;SDS011;63883;48.996;20.804;2023-03-13T08:56:54;5.18;;;3.53;;
75289;SDS011;63883;48.996;20.804;2023-03-13T08:59:20;5.63;;;3.30;;
75289;SDS011;63883;48.996;20.804;2023-03-13T09:01:45;4.57;;;3.35;;
75289;SDS011;63883;48.996;20.804;2023-03-13T09:04:11;4.47;;;3.20;;
75289;SDS011;63883;48.996;20.804;2023-03-13T09:06:37;5.13;;;3.28;;
75289;SDS011;63883;48.996;20.804;2023-03-13T09:09:04;7.25;;;3.42;;
75289;SDS011;63883;48.996;20.804;2023-03-13T09:11:31;5.63;;;3.38;;
75289;SDS011;63883;48.996;20.804;2023-03-13T09:13:57;6.32;;;3.70;;
75289;SDS011;63883;48.996;20.804;2023-03-13T09:16:29;4.72;;;3.20;;
75289;SDS011;63883;48.996;20.804;2023-03-13T09:18:56;5.97;;;3.65;;
75289;SDS011;63883;48.996;20.804;2023-03-13T09:21:23;4.18;;;3.03;;
75289;SDS011;63883;48.996;20.804;2023-03-13T09:23:52;3.97;;;2.67;;
75289;SDS011;63883;48.996;20.804;2023-03-13T09:26:18;4.13;;;2.63;;
75289;SDS011;63883;48.996;20.804;2023-03-13T09:28:45;3.28;;;2.70;;
75289;SDS011;63883;48.996;20.804;2023-03-13T09:33:36;3.20;;;2.47;;
75289;SDS011;63883;48.996;20.804;2023-03-13T09:36:03;3.03;;;2.60;;
75289;SDS011;63883;48.996;20.804;2023-03-13T09:38:30;3.35;;;2.20;;
75289;SDS011;63883;48.996;20.804;2023-03-13T09:40:59;3.47;;;2.60;;
75289;SDS011;63883;48.996;20.804;2023-03-13T09:43:42;2.92;;;2.60;;
75289;SDS011;63883;48.996;20.804;2023-03-13T09:46:24;2.65;;;2.22;;
75289;SDS011;63883;48.996;20.804;2023-03-13T09:48:57;5.35;;;2.65;;
75289;SDS011;63883;48.996;20.804;2023-03-13T09:51:29;3.30;;;2.53;;
75289;SDS011;63883;48.996;20.804;2023-03-13T09:54:03;5.45;;;2.80;;
75289;SDS011;63883;48.996;20.804;2023-03-13T09:57:06;4.65;;;2.50;;
75289;SDS011;63883;48.996;20.804;2023-03-13T09:59:40;3.90;;;2.38;;
75289;SDS011;63883;48.996;20.804;2023-03-13T10:04:56;3.30;;;2.30;;
75289;SDS011;63883;48.996;20.804;2023-03-13T10:07:28;3.95;;;2.50;;
75289;SDS011;63883;48.996;20.804;2023-03-13T10:09:53;4.60;;;2.70;;
75289;SDS011;63883;48.996;20.804;2023-03-13T10:12:20;2.47;;;2.28;;
75289;SDS011;63883;48.996;20.804;2023-03-13T10:17:37;3.10;;;2.20;;
75289;SDS011;63883;48.996;20.804;2023-03-13T10:23:12;3.33;;;2.35;;
75289;SDS011;63883;48.996;20.804;2023-03-13T10:25:41;3.78;;;2.13;;
75289;SDS011;63883;48.996;20.804;2023-03-13T10:28:10;2.50;;;2.30;;
75289;SDS011;63883;48.996;20.804;2023-03-13T10:30:37;2.70;;;2.22;;
75289;SDS011;63883;48.996;20.804;2023-03-13T10:35:37;3.15;;;2.70;;
75289;SDS011;63883;48.996;20.804;2023-03-13T10:38:08;3.40;;;2.70;;
75289;SDS011;63883;48.996;20.804;2023-03-13T10:40:37;3.72;;;2.50;;
75289;SDS011;63883;48.996;20.804;2023-03-13T10:43:04;3.47;;;2.58;;
75289;SDS011;63883;48.996;20.804;2023-03-13T10:45:44;3.08;;;2.53;;
75289;SDS011;63883;48.996;20.804;2023-03-13T10:50:35;2.47;;;2.22;;
75289;SDS011;63883;48.996;20.804;2023-03-13T10:55:51;3.03;;;2.25;;
75289;SDS011;63883;48.996;20.804;2023-03-13T10:58:19;2.72;;;2.38;;
75289;SDS011;63883;48.996;20.804;2023-03-13T11:00:50;2.30;;;2.10;;
75289;SDS011;63883;48.996;20.804;2023-03-13T11:05:55;2.45;;;2.10;;
75289;SDS011;63883;48.996;20.804;2023-03-13T11:08:26;3.83;;;2.38;;
75289;SDS011;63883;48.996;20.804;2023-03-13T11:10:57;3.28;;;2.08;;
75289;SDS011;63883;48.996;20.804;2023-03-13T11:13:40;2.55;;;1.90;;
75289;SDS011;63883;48.996;20.804;2023-03-13T11:16:12;3.28;;;2.10;;
75289;SDS011;63883;48.996;20.804;2023-03-13T11:21:22;2.60;;;2.00;;
75289;SDS011;63883;48.996;20.804;2023-03-13T11:23:57;2.10;;;1.90;;
75289;SDS011;63883;48.996;20.804;2023-03-13T11:26:41;2.58;;;2.10;;
75289;SDS011;63883;48.996;20.804;2023-03-13T11:29:38;2.30;;;2.10;;
75289;SDS011;63883;48.996;20.804;2023-03-13T11:35:58;3.25;;;2.17;;
75289;SDS011;63883;48.996;20.804;2023-03-13T11:38:21;3.33;;;2.50;;
75289;SDS011;63883;48.996;20.804;2023-03-13T11:43:30;2.75;;;2.10;;
75289;SDS011;63883;48.996;20.804;2023-03-13T11:59:44;2.80;;;2.25;;
75289;SDS011;63883;48.996;20.804;2023-03-13T12:04:58;2.97;;;2.30;;
75289;SDS011;63883;48.996;20.804;2023-03-13T12:07:40;3.75;;;2.30;;
75289;SDS011;63883;48.996;20.804;2023-03-13T12:10:11;3.47;;;2.13;;
75289;SDS011;63883;48.996;20.804;2023-03-13T12:15:40;2.60;;;2.13;;
75289;SDS011;63883;48.996;20.804;2023-03-13T12:26:52;3.80;;;2.85;;
75289;SDS011;63883;48.996;20.804;2023-03-13T12:32:32;3.58;;;2.50;;
75289;SDS011;63883;48.996;20.804;2023-03-13T12:43:32;5.00;;;3.05;;
75289;SDS011;63883;48.996;20.804;2023-03-13T12:46:03;5.25;;;3.03;;
75289;SDS011;63883;48.996;20.804;2023-03-13T12:59:55;4.47;;;2.95;;
75289;SDS011;63883;48.996;20.804;2023-03-13T13:02:29;4.07;;;3.20;;
75289;SDS011;63883;48.996;20.804;2023-03-13T13:04:56;3.92;;;3.00;;
75289;SDS011;63883;48.996;20.804;2023-03-13T13:12:26;4.10;;;3.20;;
75289;SDS011;63883;48.996;20.804;2023-03-13T13:14:54;6.03;;;3.58;;
75289;SDS011;63883;48.996;20.804;2023-03-13T13:17:25;3.92;;;2.97;;
75289;SDS011;63883;48.996;20.804;2023-03-13T13:19:56;4.40;;;2.78;;
75289;SDS011;63883;48.996;20.804;2023-03-13T13:32:47;4.60;;;3.30;;
75289;SDS011;63883;48.996;20.804;2023-03-13T13:37:46;3.65;;;2.97;;
75289;SDS011;63883;48.996;20.804;2023-03-13T13:40:17;5.30;;;3.15;;
75289;SDS011;63883;48.996;20.804;2023-03-13T13:42:55;3.97;;;2.80;;
75289;SDS011;63883;48.996;20.804;2023-03-13T13:47:50;6.50;;;3.95;;
75289;SDS011;63883;48.996;20.804;2023-03-13T13:55:56;8.20;;;3.97;;
75289;SDS011;63883;48.996;20.804;2023-03-13T13:58:23;6.80;;;3.60;;
75289;SDS011;63883;48.996;20.804;2023-03-13T14:00:59;4.85;;;3.00;;
75289;SDS011;63883;48.996;20.804;2023-03-13T14:03:30;6.53;;;3.08;;
75289;SDS011;63883;48.996;20.804;2023-03-13T14:06:02;6.32;;;3.75;;
75289;SDS011;63883;48.996;20.804;2023-03-13T14:08:39;5.47;;;3.22;;
75289;SDS011;63883;48.996;20.804;2023-03-13T14:14:12;5.57;;;3.53;;
75289;SDS011;63883;48.996;20.804;2023-03-13T14:16:44;5.43;;;3.45;;
75289;SDS011;63883;48.996;20.804;2023-03-13T14:19:21;6.28;;;3.47;;
75289;SDS011;63883;48.996;20.804;2023-03-13T14:21:49;5.20;;;3.60;;
75289;SDS011;63883;48.996;20.804;2023-03-13T14:24:15;7.53;;;4.25;;
75289;SDS011;63883;48.996;20.804;2023-03-13T14:26:42;6.03;;;3.47;;
75289;SDS011;63883;48.996;20.804;2023-03-13T14:29:14;54.15;;;12.60;;
75289;SDS011;63883;48.996;20.804;2023-03-13T14:31:41;19.83;;;8.98;;
75289;SDS011;63883;48.996;20.804;2023-03-13T14:34:15;5.78;;;3.78;;
75289;SDS011;63883;48.996;20.804;2023-03-13T14:36:45;6.53;;;4.40;;
75289;SDS011;63883;48.996;20.804;2023-03-13T14:39:16;5.82;;;3.60;;
75289;SDS011;63883;48.996;20.804;2023-03-13T14:41:45;7.32;;;3.60;;
75289;SDS011;63883;48.996;20.804;2023-03-13T14:44:19;4.75;;;3.40;;
75289;SDS011;63883;48.996;20.804;2023-03-13T14:46:49;5.20;;;3.28;;
75289;SDS011;63883;48.996;20.804;2023-03-13T14:49:24;5.72;;;3.28;;
75289;SDS011;63883;48.996;20.804;2023-03-13T14:52:06;8.23;;;4.15;;
75289;SDS011;63883;48.996;20.804;2023-03-13T14:57:18;8.35;;;3.70;;
75289;SDS011;63883;48.996;20.804;2023-03-13T14:59:47;3.85;;;3.15;;
75289;SDS011;63883;48.996;20.804;2023-03-13T15:02:25;5.43;;;3.42;;
75289;SDS011;63883;48.996;20.804;2023-03-13T15:05:00;5.95;;;3.42;;
75289;SDS011;63883;48.996;20.804;2023-03-13T15:10:17;4.47;;;3.08;;
75289;SDS011;63883;48.996;20.804;2023-03-13T15:12:48;5.15;;;3.20;;
75289;SDS011;63883;48.996;20.804;2023-03-13T15:15:14;5.00;;;3.83;;
75289;SDS011;63883;48.996;20.804;2023-03-13T15:17:41;5.32;;;3.55;;
75289;SDS011;63883;48.996;20.804;2023-03-13T15:20:08;5.43;;;3.70;;
75289;SDS011;63883;48.996;20.804;2023-03-13T15:22:38;5.40;;;3.47;;
75289;SDS011;63883;48.996;20.804;2023-03-13T15:25:14;4.78;;;3.33;;
75289;SDS011;63883;48.996;20.804;2023-03-13T15:27:45;10.30;;;5.40;;
75289;SDS011;63883;48.996;20.804;2023-03-13T15:30:15;5.32;;;3.50;;
75289;SDS011;63883;48.996;20.804;2023-03-13T15:32:42;6.60;;;3.58;;
75289;SDS011;63883;48.996;20.804;2023-03-13T15:37:56;4.85;;;3.40;;
75289;SDS011;63883;48.996;20.804;2023-03-13T15:40:24;5.78;;;3.72;;
75289;SDS011;63883;48.996;20.804;2023-03-13T15:42:52;5.18;;;3.28;;
75289;SDS011;63883;48.996;20.804;2023-03-13T15:45:19;5.70;;;3.47;;
75289;SDS011;63883;48.996;20.804;2023-03-13T15:47:45;5.50;;;3.90;;
75289;SDS011;63883;48.996;20.804;2023-03-13T15:50:12;4.93;;;3.42;;
75289;SDS011;63883;48.996;20.804;2023-03-13T15:52:40;7.43;;;3.80;;
75289;SDS011;63883;48.996;20.804;2023-03-13T15:55:06;8.13;;;4.63;;
75289;SDS011;63883;48.996;20.804;2023-03-13T15:57:32;7.32;;;4.35;;
75289;SDS011;63883;48.996;20.804;2023-03-13T16:00:02;6.68;;;4.20;;
75289;SDS011;63883;48.996;20.804;2023-03-13T16:02:31;5.60;;;3.60;;
75289;SDS011;63883;48.996;20.804;2023-03-13T16:04:56;8.90;;;3.83;;
75289;SDS011;63883;48.996;20.804;2023-03-13T16:07:22;6.90;;;3.72;;
75289;SDS011;63883;48.996;20.804;2023-03-13T16:09:48;7.65;;;3.83;;
75289;SDS011;63883;48.996;20.804;2023-03-13T16:12:14;6.15;;;3.90;;
75289;SDS011;63883;48.996;20.804;2023-03-13T16:14:40;8.40;;;3.80;;
75289;SDS011;63883;48.996;20.804;2023-03-13T16:17:11;5.88;;;3.85;;
75289;SDS011;63883;48.996;20.804;2023-03-13T16:19:38;5.63;;;3.40;;
75289;SDS011;63883;48.996;20.804;2023-03-13T16:22:04;5.10;;;3.50;;
75289;SDS011;63883;48.996;20.804;2023-03-13T16:24:30;5.20;;;3.00;;
75289;SDS011;63883;48.996;20.804;2023-03-13T16:26:55;5.07;;;3.10;;
75289;SDS011;63883;48.996;20.804;2023-03-13T16:29:21;4.93;;;3.60;;
75289;SDS011;63883;48.996;20.804;2023-03-13T16:31:47;5.80;;;3.90;;
75289;SDS011;63883;48.996;20.804;2023-03-13T16:34:13;6.90;;;3.75;;
75289;SDS011;63883;48.996;20.804;2023-03-13T16:36:38;7.85;;;4.43;;
75289;SDS011;63883;48.996;20.804;2023-03-13T16:39:05;5.90;;;3.70;;
75289;SDS011;63883;48.996;20.804;2023-03-13T16:41:33;7.32;;;3.70;;
75289;SDS011;63883;48.996;20.804;2023-03-13T16:43:59;6.32;;;3.72;;